Wallingford, Connecticut
Current Conditions -  °F | °C
As of 6:53 AM on Sunday 23 Nov 2014 (Local Time) from KMMK Reporting Station
Broken Clouds Broken Clouds  
Wind Chill: 38°   Ceiling: 8500
Heat Index: 41°   Visibility: 10mi
Dew Point: 21°   Wind: 5mph
Humidity: 45%   Direction: 140°SE
Pressure: 30.16"   Gusts: NA
Location:  41.46°N, 72.82°W
Report Text: KMMK 231153Z AUTO 14004KT 10SM FEW065 BKN085 BKN110 05/M06 A3016 RMK AO2 SLP214 T00501061 10056 20022 53003 TSNO
Loading
Personal Weather Stations






























Interactive Weather Map New forecast layout! Learn more

10-Day Weather Forecast

Advertisements
Track Severe Weather on mobile